Pagrindinis puslapis
METAR-TAF:

METAR-TAF

Oro uostai :

Tabarka, Tunisas

platuma: 36-57N, ilguma: 008-45E, Aukštis: 20 m

Dabartinis oras

Ataskaita buvo paskelbta 15 minutes, ne 21:00 UTC
Ramus vėjas
Temperatūra 10°C
Drėgmė 100%
Slėgis 1016 hPa
Matomumas 10 km arba daugiau
Mažai debesys ne aukštis 2000 ft

METAR: DTKA 282100Z 00000KT 9999 FEW020 10/10 Q1016 NOSIG

Laikas: 22:15 (21:15 UTC)

Prognozė

Ataskaita buvo paskelbta 3 valandos ir 15 minutes, ne 18:00 UTC
Prognozė galioja nuo 28 metu 19 UTC su 29 metu 04 UTC
Vėjas 2 kt iš Pietvakarių
Matomumas 10 km arba daugiau
Mažai debesys ne aukštis 2000 ft
Tikimybė 30% :
Laikinai
nuo 28 metu 21 UTC su 29 metu 04 UTC
Matomumas: 4000 m
Mažai debesys ne aukštis 2600 ft, Liūtiniai kamuoliniai debesys.
perkūnija, lietus

TAF: DTKA 281800Z 2819/2904 22002KT 9999 FEW020 PROB30 TEMPO 2821/2904 4000 TSRA FEW026CB

Orai ataskaitas ir orų prognozės (METAR, TAF).

turimą stotys yra geltonos ir raudonos taškus žemėlapyje.

Perkelti pele per norėdami pamatyti stoties vardą.

Tada spustelėkite, norėdami matyti oro stebėjimo ir prognozės.

Norėdami pakeisti žemėlapį: spustelėkite ant žalios mygtukų su juodo kryžiaus žemyn,; žalią mygtuką su brūkšneliu, jei norite nutolinti; arba žalių rodyklių gretimoms žemėlapius.


METAR-TAF: